createdAt,value
2022-10-11T00:01:42.697Z,1.80
2022-10-11T00:04:09.242Z,1.55
2022-10-11T00:06:37.907Z,1.48
2022-10-11T00:09:05.588Z,1.73
2022-10-11T00:11:32.771Z,1.42
2022-10-11T00:13:59.317Z,1.23
2022-10-11T00:16:25.899Z,1.23
2022-10-11T00:18:52.339Z,2.00
2022-10-11T00:21:20.566Z,2.17
2022-10-11T00:23:47.919Z,1.85
2022-10-11T00:26:14.767Z,1.40
2022-10-11T00:28:41.724Z,1.90
2022-10-11T00:31:11.220Z,1.40
2022-10-11T00:33:37.824Z,1.65
2022-10-11T00:36:04.725Z,2.50
2022-10-11T00:38:32.086Z,1.55
2022-10-11T00:40:59.896Z,2.70
2022-10-11T00:43:29.594Z,1.42
2022-10-11T00:45:55.898Z,1.23
2022-10-11T00:48:50.730Z,1.50
2022-10-11T00:51:23.744Z,2.03
2022-10-11T00:53:51.688Z,1.52
2022-10-11T00:56:26.115Z,1.83
2022-10-11T01:01:20.498Z,1.65
2022-10-11T01:03:47.231Z,2.47
2022-10-11T01:06:13.675Z,1.42
2022-10-11T01:08:40.533Z,2.22
2022-10-11T01:11:12.211Z,1.30
2022-10-11T01:13:56.318Z,2.72
2022-10-11T01:16:36.039Z,1.92
2022-10-11T01:19:02.486Z,1.35
2022-10-11T01:21:57.699Z,1.73
2022-10-11T01:25:09.256Z,1.85
2022-10-11T01:27:53.885Z,1.42
2022-10-11T01:30:21.797Z,2.28
2022-10-11T01:32:57.065Z,1.67
2022-10-11T01:35:31.037Z,2.80
2022-10-11T01:38:07.684Z,1.75
2022-10-11T01:40:39.779Z,2.53
2022-10-11T01:43:06.608Z,2.55
2022-10-11T01:45:34.647Z,2.17
2022-10-11T01:48:13.165Z,1.67
2022-10-11T01:50:53.322Z,2.72
2022-10-11T01:53:39.253Z,1.60
2022-10-11T01:56:12.408Z,3.25
2022-10-11T01:58:44.817Z,1.95
2022-10-11T02:01:49.088Z,2.10
2022-10-11T02:04:27.209Z,1.73
2022-10-11T02:07:11.541Z,1.80
2022-10-11T02:09:59.540Z,3.83
2022-10-11T02:12:37.731Z,3.03
2022-10-11T02:15:09.271Z,1.90
2022-10-11T02:17:47.867Z,1.80
2022-10-11T02:20:21.132Z,2.25
2022-10-11T02:22:51.563Z,1.90
2022-10-11T02:25:24.179Z,1.92
2022-10-11T02:27:54.229Z,2.25
2022-10-11T02:30:20.804Z,2.20
2022-10-11T02:32:50.147Z,2.17
2022-10-11T02:35:16.999Z,2.72
2022-10-11T02:37:53.093Z,2.58
2022-10-11T02:40:35.949Z,1.85
2022-10-11T02:43:13.430Z,3.83
2022-10-11T02:45:44.724Z,2.20
2022-10-11T02:48:12.551Z,2.03
2022-10-11T02:50:39.780Z,2.70
2022-10-11T02:53:06.744Z,2.33
2022-10-11T02:55:33.400Z,2.25
2022-10-11T02:57:59.833Z,2.15
2022-10-11T03:00:26.428Z,2.03
2022-10-11T03:02:52.882Z,2.50
2022-10-11T03:05:19.813Z,2.45
2022-10-11T03:07:46.314Z,3.28
2022-10-11T03:10:12.958Z,1.98
2022-10-11T03:12:39.465Z,1.88
2022-10-11T03:15:06.429Z,2.22
2022-10-11T03:17:37.322Z,1.35
2022-10-11T03:20:05.998Z,2.13
2022-10-11T03:22:32.623Z,1.48
2022-10-11T03:25:03.635Z,2.40
2022-10-11T03:27:31.780Z,2.10
2022-10-11T03:29:58.696Z,1.60
2022-10-11T03:32:25.253Z,2.10
2022-10-11T03:34:51.861Z,1.95
2022-10-11T03:37:18.888Z,2.00
2022-10-11T03:39:45.843Z,1.70
2022-10-11T03:42:13.503Z,2.10
2022-10-11T03:44:41.542Z,1.75
2022-10-11T03:47:08.563Z,1.55
2022-10-11T03:49:37.732Z,1.88
2022-10-11T03:54:48.542Z,1.60
2022-10-11T03:57:15.246Z,1.95
2022-10-11T03:59:41.717Z,1.13
2022-10-11T04:02:08.271Z,1.95
2022-10-11T04:04:34.877Z,2.53
2022-10-11T04:07:01.334Z,2.20
2022-10-11T04:09:27.870Z,2.28
2022-10-11T04:11:54.304Z,2.22
2022-10-11T04:14:20.743Z,1.88
2022-10-11T04:16:47.215Z,1.70
2022-10-11T04:19:14.248Z,1.63
2022-10-11T04:21:40.678Z,2.08
2022-10-11T04:24:07.359Z,2.53
2022-10-11T04:26:33.852Z,1.88
2022-10-11T04:29:00.287Z,1.83
2022-10-11T04:31:26.716Z,2.60
2022-10-11T04:33:54.575Z,1.88
2022-10-11T04:36:21.017Z,1.63
2022-10-11T04:38:47.509Z,2.17
2022-10-11T04:41:14.939Z,1.42
2022-10-11T04:43:41.357Z,2.13
2022-10-11T04:46:09.046Z,1.98
2022-10-11T04:48:36.146Z,2.03
2022-10-11T04:51:02.670Z,3.28
2022-10-11T04:53:29.124Z,4.43
2022-10-11T04:56:01.252Z,4.15
2022-10-11T04:58:29.334Z,2.42
2022-10-11T05:00:56.125Z,1.80
2022-10-11T05:03:22.738Z,1.00
2022-10-11T05:05:49.906Z,1.80
2022-10-11T05:08:16.481Z,1.23
2022-10-11T05:10:43.147Z,1.25
2022-10-11T05:13:09.622Z,1.50
2022-10-11T05:15:36.055Z,1.23
2022-10-11T05:18:02.703Z,1.60
2022-10-11T05:20:29.185Z,1.98
2022-10-11T05:22:55.715Z,1.70
2022-10-11T05:25:22.302Z,1.17
2022-10-11T05:27:48.822Z,1.60
2022-10-11T05:30:15.550Z,1.98
2022-10-11T05:32:42.080Z,1.25
2022-10-11T05:35:08.926Z,1.80
2022-10-11T05:37:35.457Z,2.42
2022-10-11T05:40:01.859Z,1.52
2022-10-11T05:42:28.291Z,2.25
2022-10-11T05:44:54.778Z,2.53
2022-10-11T05:47:21.218Z,2.17
2022-10-11T05:49:47.644Z,1.52
2022-10-11T05:52:19.819Z,1.27
2022-10-11T05:54:46.248Z,1.40
2022-10-11T05:57:12.688Z,1.40
2022-10-11T05:59:39.159Z,1.30
2022-10-11T06:02:06.359Z,1.50
2022-10-11T06:04:37.126Z,1.20
2022-10-11T06:07:03.853Z,1.33
2022-10-11T06:09:30.787Z,1.50
2022-10-11T06:11:57.408Z,1.38
2022-10-11T06:14:23.993Z,1.42
2022-10-11T06:16:50.476Z,1.90
2022-10-11T06:19:16.960Z,1.15
2022-10-11T06:21:45.184Z,1.33
2022-10-11T06:24:12.289Z,1.42
2022-10-11T06:26:38.819Z,1.48
2022-10-11T06:29:05.906Z,1.75
2022-10-11T06:31:32.936Z,0.88
2022-10-11T06:33:59.569Z,1.40
2022-10-11T06:36:26.679Z,1.30
2022-10-11T06:38:54.985Z,1.48
2022-10-11T06:43:49.961Z,1.30
2022-10-11T06:46:18.675Z,1.25
2022-10-11T06:48:46.649Z,0.60
2022-10-11T06:51:15.844Z,1.40
2022-10-11T06:53:42.660Z,1.08
2022-10-11T06:56:11.218Z,1.00
2022-10-11T06:58:38.729Z,2.17
2022-10-11T07:01:12.937Z,1.30
2022-10-11T07:03:39.986Z,1.30
2022-10-11T07:06:10.009Z,1.55
2022-10-11T07:08:37.685Z,1.35
2022-10-11T07:11:25.338Z,1.70
2022-10-11T07:13:56.685Z,1.30
2022-10-11T07:16:24.158Z,1.65
2022-10-11T07:19:00.250Z,1.42
2022-10-11T07:21:28.656Z,1.52
2022-10-11T07:23:55.251Z,2.00
2022-10-11T07:26:21.708Z,1.42
2022-10-11T07:28:48.443Z,1.42
2022-10-11T07:31:18.826Z,1.38
2022-10-11T07:33:45.716Z,2.03
2022-10-11T07:36:13.052Z,1.40
2022-10-11T07:38:41.438Z,1.90
2022-10-11T07:41:08.675Z,2.35
2022-10-11T07:43:36.473Z,1.65
2022-10-11T07:46:04.931Z,1.52
2022-10-11T07:48:33.884Z,2.35
2022-10-11T07:51:11.968Z,2.20
2022-10-11T07:53:40.205Z,2.28
2022-10-11T07:56:07.884Z,2.30
2022-10-11T07:58:35.090Z,1.90
2022-10-11T08:01:01.606Z,2.17
2022-10-11T08:03:28.140Z,2.15
2022-10-11T08:05:54.625Z,1.98
2022-10-11T08:08:21.399Z,1.52
2022-10-11T08:10:50.437Z,1.83
2022-10-11T08:13:17.533Z,1.90
2022-10-11T08:15:44.079Z,2.13
2022-10-11T08:18:10.679Z,1.95
2022-10-11T08:20:39.673Z,1.52
2022-10-11T08:23:06.763Z,2.08
2022-10-11T08:25:41.215Z,1.50
2022-10-11T08:30:34.654Z,1.85
2022-10-11T08:33:05.005Z,1.70
2022-10-11T08:35:34.138Z,1.90
2022-10-11T08:38:00.577Z,2.08
2022-10-11T08:40:29.439Z,1.42
2022-10-11T08:43:15.425Z,2.25
2022-10-11T08:45:50.868Z,3.00
2022-10-11T08:48:21.430Z,2.13
2022-10-11T08:50:54.278Z,1.67
2022-10-11T08:53:39.465Z,1.65
2022-10-11T08:56:07.120Z,2.03
2022-10-11T08:58:51.600Z,2.55
2022-10-11T09:01:24.937Z,2.10
2022-10-11T09:03:52.630Z,1.90
2022-10-11T09:07:04.702Z,2.92
2022-10-11T09:09:34.139Z,2.08
2022-10-11T09:12:23.070Z,3.25
2022-10-11T09:15:17.545Z,2.20
2022-10-11T09:18:19.355Z,1.65
2022-10-11T09:21:11.709Z,2.38
2022-10-11T09:23:48.616Z,1.85
2022-10-11T09:26:25.530Z,2.13
2022-10-11T09:29:05.709Z,1.98
2022-10-11T09:31:32.825Z,2.55
2022-10-11T09:34:10.107Z,2.03
2022-10-11T09:37:11.944Z,2.47
2022-10-11T09:39:45.168Z,2.30
2022-10-11T09:42:12.355Z,1.45
2022-10-11T09:44:41.190Z,2.33
2022-10-11T09:47:14.744Z,2.05
2022-10-11T09:49:47.235Z,3.15
2022-10-11T09:52:20.681Z,2.65
2022-10-11T09:54:50.773Z,1.60
2022-10-11T09:57:29.632Z,1.83
2022-10-11T10:00:24.725Z,1.85
2022-10-11T10:02:55.438Z,2.50
2022-10-11T10:05:25.028Z,2.08
2022-10-11T10:08:04.123Z,2.38
2022-10-11T10:10:38.508Z,2.22
2022-10-11T10:13:17.758Z,1.75
2022-10-11T10:15:48.075Z,1.95
2022-10-11T10:18:24.642Z,1.88
2022-10-11T10:20:54.286Z,1.98
2022-10-11T10:23:27.895Z,2.00
2022-10-11T10:26:20.285Z,2.35
2022-10-11T10:28:59.076Z,1.95
2022-10-11T10:31:49.167Z,1.98
2022-10-11T10:34:29.843Z,1.70
2022-10-11T10:37:03.554Z,1.75
2022-10-11T10:39:40.962Z,2.97
2022-10-11T10:42:15.521Z,1.80
2022-10-11T10:44:43.821Z,2.10
2022-10-11T10:47:28.918Z,2.20
2022-10-11T10:50:17.177Z,1.80
2022-10-11T10:53:17.429Z,2.10
2022-10-11T10:55:52.418Z,3.35
2022-10-11T10:59:14.395Z,1.92
2022-10-11T11:02:35.468Z,1.70
2022-10-11T11:05:28.891Z,1.27
2022-10-11T11:08:01.133Z,1.63
2022-10-11T11:10:38.935Z,2.08
2022-10-11T11:13:47.419Z,2.50
2022-10-11T11:16:24.771Z,1.77
2022-10-11T11:18:57.130Z,1.58
2022-10-11T11:21:29.735Z,1.52
2022-10-11T11:24:14.627Z,1.75
2022-10-11T11:26:49.843Z,1.52
2022-10-11T11:29:45.189Z,2.63
2022-10-11T11:32:24.697Z,1.95
2022-10-11T11:35:01.126Z,1.80
2022-10-11T11:37:36.096Z,1.35
2022-10-11T11:40:20.013Z,2.00
2022-10-11T11:42:51.393Z,1.45
2022-10-11T11:45:20.078Z,1.40
2022-10-11T11:47:54.913Z,1.48
2022-10-11T11:50:23.767Z,1.65
2022-10-11T11:53:15.274Z,1.80
2022-10-11T11:55:52.722Z,1.48
2022-10-11T11:58:43.897Z,1.92
2022-10-11T12:01:30.274Z,1.70
2022-10-11T12:04:04.958Z,1.90
2022-10-11T12:06:37.866Z,1.88
2022-10-11T12:09:18.982Z,1.70
2022-10-11T12:11:58.601Z,1.63
2022-10-11T12:14:27.319Z,2.85
2022-10-11T12:17:11.291Z,1.73
2022-10-11T12:19:40.700Z,1.98
2022-10-11T12:22:53.602Z,1.80
2022-10-11T12:25:23.082Z,1.70
2022-10-11T12:27:52.329Z,1.60
2022-10-11T12:30:44.197Z,1.52
2022-10-11T12:33:30.855Z,2.08
2022-10-11T12:36:07.492Z,1.52
2022-10-11T12:38:40.196Z,1.33
2022-10-11T12:41:09.759Z,0.90
2022-10-11T12:43:48.662Z,1.30
2022-10-11T12:46:31.063Z,1.10
2022-10-11T12:49:25.107Z,1.27
2022-10-11T12:52:17.731Z,1.30
2022-10-11T12:55:23.850Z,1.40
2022-10-11T12:58:19.143Z,1.40
2022-10-11T13:00:52.207Z,2.35
2022-10-11T13:03:49.399Z,1.23
2022-10-11T13:06:28.891Z,1.75
2022-10-11T13:09:15.593Z,2.17
2022-10-11T13:11:51.374Z,1.30
2022-10-11T13:14:21.915Z,1.45
2022-10-11T13:16:50.801Z,1.55
2022-10-11T13:19:22.666Z,2.08
2022-10-11T13:21:55.955Z,1.10
2022-10-11T13:24:23.318Z,1.33
2022-10-11T13:26:52.668Z,1.33
2022-10-11T13:29:33.797Z,1.30
2022-10-11T13:32:04.552Z,0.98
2022-10-11T13:34:35.572Z,1.00
2022-10-11T13:37:02.307Z,1.33
2022-10-11T13:39:34.087Z,1.55
2022-10-11T13:42:03.571Z,1.20
2022-10-11T13:44:33.337Z,1.20
2022-10-11T13:47:00.268Z,0.98
2022-10-11T13:49:38.549Z,1.10
2022-10-11T13:52:27.364Z,1.35
2022-10-11T13:54:55.200Z,1.20
2022-10-11T13:57:24.650Z,1.38
2022-10-11T13:59:51.228Z,1.10
2022-10-11T14:02:22.343Z,1.10
2022-10-11T14:04:50.560Z,1.77
2022-10-11T14:07:31.600Z,2.95
2022-10-11T14:09:58.126Z,1.38
2022-10-11T14:12:30.632Z,1.25
2022-10-11T14:15:00.927Z,1.17
2022-10-11T14:17:45.179Z,1.10
2022-10-11T14:20:11.996Z,1.58
2022-10-11T14:22:39.084Z,1.60
2022-10-11T14:25:05.947Z,1.23
2022-10-11T14:27:32.647Z,1.38
2022-10-11T14:30:24.960Z,1.63
2022-10-11T14:32:52.043Z,1.25
2022-10-11T14:35:28.239Z,1.10
2022-10-11T14:37:55.085Z,0.80
2022-10-11T14:40:26.295Z,1.05
2022-10-11T14:42:53.479Z,1.33
2022-10-11T14:45:21.330Z,1.25
2022-10-11T14:50:37.538Z,0.65
2022-10-11T14:53:05.782Z,1.08
2022-10-11T14:55:36.598Z,3.00
2022-10-11T14:58:04.026Z,0.95
2022-10-11T15:00:31.130Z,1.17
2022-10-11T15:02:57.940Z,1.02
2022-10-11T15:05:31.116Z,1.30
2022-10-11T15:08:00.420Z,1.17
2022-10-11T15:10:30.768Z,1.25
2022-10-11T15:12:57.875Z,1.02
2022-10-11T15:15:26.424Z,0.90
2022-10-11T15:17:57.981Z,1.20
2022-10-11T15:20:33.736Z,0.90
2022-10-11T15:23:01.319Z,0.75
2022-10-11T15:25:29.321Z,1.38
2022-10-11T15:30:27.355Z,0.93
2022-10-11T15:32:54.388Z,0.93
2022-10-11T15:35:22.889Z,1.38
2022-10-11T15:37:53.436Z,1.20
2022-10-11T15:40:33.350Z,0.95
2022-10-11T15:42:59.988Z,1.20
2022-10-11T15:45:30.109Z,1.23
2022-10-11T15:47:57.134Z,0.90
2022-10-11T15:50:41.421Z,1.25
2022-10-11T15:53:11.802Z,1.40
2022-10-11T15:55:51.290Z,0.98
2022-10-11T15:58:26.675Z,1.17
2022-10-11T16:00:55.724Z,0.98
2022-10-11T16:03:24.832Z,0.95
2022-10-11T16:05:52.699Z,1.35
2022-10-11T16:08:19.992Z,1.30
2022-10-11T16:10:46.566Z,1.38
2022-10-11T16:13:13.106Z,1.10
2022-10-11T16:15:41.849Z,2.33
2022-10-11T16:18:10.435Z,1.08
2022-10-11T16:20:41.716Z,1.13
2022-10-11T16:23:08.470Z,1.15
2022-10-11T16:25:36.012Z,1.50
2022-10-11T16:28:04.401Z,1.08
2022-10-11T16:30:31.167Z,1.92
2022-10-11T16:32:57.792Z,1.00
2022-10-11T16:35:26.924Z,1.98
2022-10-11T16:37:55.579Z,1.27
2022-10-11T16:40:22.123Z,1.35
2022-10-11T16:42:48.815Z,1.52
2022-10-11T16:45:18.533Z,1.92
2022-10-11T16:47:45.246Z,1.55
2022-10-11T16:50:13.152Z,1.08
2022-10-11T16:52:39.958Z,1.90
2022-10-11T16:55:07.001Z,1.27
2022-10-11T16:57:33.717Z,1.40
2022-10-11T17:00:00.355Z,1.65
2022-10-11T17:02:32.138Z,1.35
2022-10-11T17:04:59.672Z,1.27
2022-10-11T17:07:28.644Z,1.30
2022-10-11T17:09:55.540Z,1.38
2022-10-11T17:12:24.245Z,1.55
2022-10-11T17:14:51.289Z,1.30
2022-10-11T17:17:18.893Z,1.35
2022-10-11T17:19:47.600Z,0.95
2022-10-11T17:22:17.193Z,2.05
2022-10-11T17:24:44.671Z,1.50
2022-10-11T17:27:11.551Z,1.38
2022-10-11T17:29:41.178Z,1.95
2022-10-11T17:32:10.737Z,1.35
2022-10-11T17:34:40.080Z,1.48
2022-10-11T17:37:08.868Z,2.05
2022-10-11T17:39:35.510Z,2.53
2022-10-11T17:42:07.430Z,1.60
2022-10-11T17:44:35.356Z,1.58
2022-10-11T17:47:03.402Z,1.88
2022-10-11T17:49:30.337Z,3.03
2022-10-11T17:51:56.997Z,1.40
2022-10-11T17:54:24.605Z,1.45
2022-10-11T17:56:51.194Z,1.40
2022-10-11T17:59:21.405Z,1.88
2022-10-11T18:01:50.252Z,1.40
2022-10-11T18:04:26.584Z,1.98
2022-10-11T18:06:53.831Z,1.55
2022-10-11T18:09:24.659Z,1.55
2022-10-11T18:11:51.494Z,1.48
2022-10-11T18:14:19.483Z,1.60
2022-10-11T18:16:47.149Z,2.20
2022-10-11T18:19:14.459Z,1.95
2022-10-11T18:21:44.043Z,1.40
2022-10-11T18:24:16.375Z,2.00
2022-10-11T18:26:46.818Z,1.95
2022-10-11T18:29:14.484Z,1.73
2022-10-11T18:31:41.639Z,1.90
2022-10-11T18:34:10.894Z,2.25
2022-10-11T18:36:38.294Z,1.67
2022-10-11T18:39:07.740Z,2.05
2022-10-11T18:41:35.548Z,1.73
2022-10-11T18:44:07.771Z,1.50
2022-10-11T18:46:35.978Z,2.10
2022-10-11T18:53:59.999Z,2.97
2022-10-11T18:56:28.332Z,3.15
2022-10-11T18:58:56.538Z,2.35
2022-10-11T19:03:53.445Z,2.63
2022-10-11T19:06:26.830Z,2.67
2022-10-11T19:08:59.047Z,2.85
2022-10-11T19:11:25.620Z,3.28
2022-10-11T19:13:57.533Z,3.88
2022-10-11T19:16:24.394Z,3.42
2022-10-11T19:18:52.056Z,3.85
2022-10-11T19:21:20.448Z,3.33
2022-10-11T19:23:48.994Z,3.55
2022-10-11T19:26:19.833Z,4.13
2022-10-11T19:28:49.800Z,3.10
2022-10-11T19:31:17.391Z,3.42
2022-10-11T19:33:45.363Z,3.58
2022-10-11T19:36:13.961Z,3.22
2022-10-11T19:38:43.994Z,2.80
2022-10-11T19:41:11.092Z,3.75
2022-10-11T19:43:37.535Z,3.72
2022-10-11T19:46:06.199Z,3.63
2022-10-11T19:48:35.418Z,3.97
2022-10-11T19:51:09.596Z,4.35
2022-10-11T19:53:36.235Z,4.60
2022-10-11T19:56:04.969Z,4.28
2022-10-11T19:58:31.546Z,4.63
2022-10-11T20:01:03.115Z,4.53
2022-10-11T20:03:30.091Z,4.03
2022-10-11T20:06:00.527Z,4.90
2022-10-11T20:08:31.155Z,4.28
2022-10-11T20:10:59.228Z,4.25
2022-10-11T20:13:29.982Z,3.83
2022-10-11T20:16:05.620Z,4.32
2022-10-11T20:18:32.716Z,4.10
2022-10-11T20:21:05.200Z,3.97
2022-10-11T20:23:32.538Z,4.60
2022-10-11T20:26:01.336Z,5.05
2022-10-11T20:30:55.055Z,4.60
2022-10-11T20:33:21.613Z,4.40
2022-10-11T20:36:02.787Z,3.22
2022-10-11T20:38:32.410Z,4.53
2022-10-11T20:40:58.948Z,3.88
2022-10-11T20:43:25.969Z,4.60
2022-10-11T20:46:14.048Z,4.80
2022-10-11T20:48:41.598Z,3.70
2022-10-11T20:51:10.316Z,5.20
2022-10-11T20:53:38.248Z,4.75
2022-10-11T20:56:09.604Z,4.10
2022-10-11T20:58:36.149Z,5.10
2022-10-11T21:01:16.895Z,4.63
2022-10-11T21:03:43.949Z,5.07
2022-10-11T21:06:11.297Z,5.22
2022-10-11T21:08:39.160Z,5.18
2022-10-11T21:11:07.025Z,5.80
2022-10-11T21:13:33.567Z,5.30
2022-10-11T21:16:05.242Z,5.15
2022-10-11T21:18:31.693Z,5.70
2022-10-11T21:21:06.490Z,5.38
2022-10-11T21:23:33.474Z,5.50
2022-10-11T21:26:04.954Z,6.20
2022-10-11T21:28:31.509Z,5.00
2022-10-11T21:31:07.010Z,5.65
2022-10-11T21:33:34.931Z,7.07
2022-10-11T21:36:06.297Z,5.20
2022-10-11T21:38:33.223Z,5.05
2022-10-11T21:41:06.356Z,5.75
2022-10-11T21:43:35.131Z,5.97
2022-10-11T21:49:15.996Z,5.18
2022-10-11T21:51:42.627Z,5.40
2022-10-11T21:54:09.648Z,6.53
2022-10-11T21:56:36.118Z,5.30
2022-10-11T21:59:05.391Z,4.70
2022-10-11T22:01:36.596Z,5.90
2022-10-11T22:04:07.562Z,4.72
2022-10-11T22:06:34.580Z,4.97
2022-10-11T22:09:01.152Z,3.97
2022-10-11T22:11:27.751Z,3.22
2022-10-11T22:13:54.183Z,3.58
2022-10-11T22:16:20.750Z,3.88
2022-10-11T22:18:47.248Z,3.42
2022-10-11T22:21:19.585Z,3.45
2022-10-11T22:23:51.187Z,2.85
2022-10-11T22:26:21.069Z,2.90
2022-10-11T22:28:48.090Z,2.60
2022-10-11T22:31:18.944Z,2.45
2022-10-11T22:36:18.903Z,2.00
2022-10-11T22:38:45.448Z,2.35
2022-10-11T22:41:12.574Z,2.00
2022-10-11T22:43:39.272Z,2.90
2022-10-11T22:46:06.278Z,2.67
2022-10-11T22:48:32.820Z,2.38
2022-10-11T22:50:59.476Z,2.17
2022-10-11T22:53:25.956Z,2.00
2022-10-11T22:55:52.437Z,3.17
2022-10-11T22:58:19.120Z,2.55
2022-10-11T23:00:45.585Z,2.63
2022-10-11T23:03:13.610Z,2.45
2022-10-11T23:05:40.052Z,2.33
2022-10-11T23:08:06.754Z,2.40
2022-10-11T23:10:33.183Z,2.47
2022-10-11T23:12:59.631Z,2.17
2022-10-11T23:15:26.078Z,2.10
2022-10-11T23:17:52.467Z,2.00
2022-10-11T23:20:18.940Z,2.58
2022-10-11T23:22:45.427Z,1.92
2022-10-11T23:25:11.850Z,2.00
2022-10-11T23:27:38.825Z,2.22
2022-10-11T23:30:06.196Z,2.28
2022-10-11T23:32:32.666Z,2.22
2022-10-11T23:34:59.084Z,2.05
2022-10-11T23:37:25.572Z,2.22
2022-10-11T23:39:52.156Z,1.88
2022-10-11T23:42:18.673Z,2.22
2022-10-11T23:44:45.072Z,2.28
2022-10-11T23:47:11.615Z,2.38
2022-10-11T23:49:38.007Z,1.90
2022-10-11T23:52:04.538Z,1.63
2022-10-11T23:54:31.015Z,2.38
2022-10-11T23:56:57.721Z,2.28
2022-10-11T23:59:24.346Z,1.85
